KLM59N EHAM-EKBI
Flight info
| Callsign | KLM59N |
|---|---|
| Flight time | 0h 51m |
| Altitude | 37000 |
| Route | ANDIK N873 REXMI DCT MIKRO DCT GELBA |
| Aircraft | B738/M-SDE2E3FGHIRWXY/LB1 |
Departure
| Time | 2026-05-05 08:26 |
|---|---|
| Airport | Amsterdam Airport Schiphol (EHAM) |
Arrival
| Time | 2026-05-05 09:17 |
|---|---|
| Airport | Billund Airport (EKBI) |
| Time | Latitude | Longitude | Altitude | Speed | Heading |
|---|---|---|---|---|---|
| 2026-05-05 07:49 | 52.30410 | 4.76360 | -2 ft | 0 kts | 238° |
| 2026-05-05 08:10 | 52.30419 | 4.76384 | -2 ft | 4 kts | 236° |
| 2026-05-05 08:11 | 52.30436 | 4.76415 | -2 ft | 4 kts | 200° |
| 2026-05-05 08:11 | 52.30448 | 4.76417 | -2 ft | 0 kts | 158° |
| 2026-05-05 08:15 | 52.30446 | 4.76419 | -2 ft | 0 kts | 158° |
| 2026-05-05 08:15 | 52.30433 | 4.76427 | -2 ft | 1 kts | 158° |
| 2026-05-05 08:16 | 52.30423 | 4.76435 | -2 ft | 2 kts | 152° |
| 2026-05-05 08:16 | 52.30408 | 4.76455 | -2 ft | 4 kts | 139° |
| 2026-05-05 08:16 | 52.30373 | 4.76499 | -2 ft | 8 kts | 144° |
| 2026-05-05 08:16 | 52.30334 | 4.76579 | -2 ft | 10 kts | 99° |
| 2026-05-05 08:17 | 52.30340 | 4.76685 | -2 ft | 9 kts | 102° |
| 2026-05-05 08:17 | 52.30309 | 4.76774 | -2 ft | 9 kts | 104° |
| 2026-05-05 08:17 | 52.30328 | 4.76866 | -2 ft | 9 kts | 57° |
| 2026-05-05 08:17 | 52.30361 | 4.76950 | -2 ft | 9 kts | 58° |
| 2026-05-05 08:18 | 52.30396 | 4.77040 | -2 ft | 11 kts | 57° |
| 2026-05-05 08:18 | 52.30444 | 4.77166 | -2 ft | 15 kts | 58° |
| 2026-05-05 08:18 | 52.30504 | 4.77323 | -2 ft | 17 kts | 57° |
| 2026-05-05 08:18 | 52.30565 | 4.77481 | -2 ft | 16 kts | 57° |
| 2026-05-05 08:19 | 52.30650 | 4.77583 | -2 ft | 15 kts | 11° |
| 2026-05-05 08:19 | 52.30756 | 4.77597 | -2 ft | 15 kts | 3° |
| 2026-05-05 08:19 | 52.30823 | 4.77604 | -2 ft | 14 kts | 3° |
| 2026-05-05 08:19 | 52.30921 | 4.77613 | -2 ft | 14 kts | 4° |
| 2026-05-05 08:20 | 52.31015 | 4.77622 | -2 ft | 13 kts | 2° |
| 2026-05-05 08:20 | 52.31140 | 4.77633 | -2 ft | 15 kts | 3° |
| 2026-05-05 08:20 | 52.31216 | 4.77640 | -2 ft | 17 kts | 3° |
| 2026-05-05 08:20 | 52.31346 | 4.77653 | -2 ft | 19 kts | 3° |
| 2026-05-05 08:21 | 52.31474 | 4.77611 | -2 ft | 19 kts | 325° |
| 2026-05-05 08:21 | 52.31560 | 4.77457 | -2 ft | 18 kts | 298° |
| 2026-05-05 08:21 | 52.31574 | 4.77258 | -2 ft | 18 kts | 267° |
| 2026-05-05 08:21 | 52.31567 | 4.77062 | -2 ft | 17 kts | 267° |
| 2026-05-05 08:22 | 52.31561 | 4.76873 | -2 ft | 16 kts | 266° |
| 2026-05-05 08:22 | 52.31555 | 4.76692 | -2 ft | 16 kts | 266° |
| 2026-05-05 08:22 | 52.31549 | 4.76517 | -2 ft | 15 kts | 266° |
| 2026-05-05 08:22 | 52.31543 | 4.76350 | -2 ft | 14 kts | 267° |
| 2026-05-05 08:23 | 52.31539 | 4.76189 | -2 ft | 14 kts | 267° |
| 2026-05-05 08:23 | 52.31535 | 4.76053 | -2 ft | 7 kts | 268° |
| 2026-05-05 08:23 | 52.31562 | 4.76001 | -2 ft | 7 kts | 345° |
| 2026-05-05 08:23 | 52.31607 | 4.76008 | -2 ft | 7 kts | 24° |
| 2026-05-05 08:24 | 52.31637 | 4.76062 | -2 ft | 6 kts | 56° |
| 2026-05-05 08:24 | 52.31662 | 4.76128 | -1 ft | 8 kts | 58° |
| 2026-05-05 08:24 | 52.31696 | 4.76194 | -1 ft | 5 kts | 27° |
| 2026-05-05 08:24 | 52.31717 | 4.76227 | -1 ft | 5 kts | 71° |
| 2026-05-05 08:25 | 52.31718 | 4.76248 | -1 ft | 0 kts | 88° |
| 2026-05-05 08:25 | 52.31718 | 4.76254 | -1 ft | 1 kts | 88° |
| 2026-05-05 08:25 | 52.31719 | 4.76283 | -1 ft | 14 kts | 88° |
| 2026-05-05 08:25 | 52.31742 | 4.76908 | -3 ft | 95 kts | 86° |
| 2026-05-05 08:26 | 52.31789 | 4.78349 | 38 ft | 155 kts | 82° |
| 2026-05-05 08:26 | 52.31829 | 4.80167 | 749 ft | 155 kts | 82° |
| 2026-05-05 08:26 | 52.31885 | 4.81834 | 1816 ft | 144 kts | 82° |
| 2026-05-05 08:26 | 52.31957 | 4.83561 | 2347 ft | 166 kts | 83° |
| 2026-05-05 08:27 | 52.32070 | 4.85623 | 2635 ft | 198 kts | 82° |
| 2026-05-05 08:27 | 52.32192 | 4.88021 | 2862 ft | 225 kts | 82° |
| 2026-05-05 08:27 | 52.32665 | 4.90578 | 3170 ft | 246 kts | 56° |
| 2026-05-05 08:27 | 52.33679 | 4.92861 | 3906 ft | 250 kts | 52° |
| 2026-05-05 08:28 | 52.34700 | 4.95184 | 4717 ft | 258 kts | 53° |
| 2026-05-05 08:28 | 52.35765 | 4.97632 | 5329 ft | 269 kts | 54° |
| 2026-05-05 08:28 | 52.36863 | 5.00139 | 6137 ft | 273 kts | 54° |
| 2026-05-05 08:28 | 52.37978 | 5.02692 | 6940 ft | 277 kts | 53° |
| 2026-05-05 08:29 | 52.39104 | 5.05276 | 7828 ft | 280 kts | 54° |
| 2026-05-05 08:29 | 52.40231 | 5.07864 | 8684 ft | 286 kts | 53° |
| 2026-05-05 08:29 | 52.41391 | 5.10532 | 9617 ft | 289 kts | 54° |
| 2026-05-05 08:30 | 52.44712 | 5.14343 | 10737 ft | 316 kts | 15° |
| 2026-05-05 08:30 | 52.46884 | 5.15360 | 11438 ft | 324 kts | 11° |
| 2026-05-05 08:30 | 52.49065 | 5.16227 | 12276 ft | 329 kts | 12° |
| 2026-05-05 08:30 | 52.51329 | 5.17147 | 13230 ft | 333 kts | 11° |
| 2026-05-05 08:31 | 52.53586 | 5.18087 | 14116 ft | 337 kts | 12° |
| 2026-05-05 08:31 | 52.55871 | 5.19111 | 14927 ft | 343 kts | 15° |
| 2026-05-05 08:31 | 52.58187 | 5.20165 | 15756 ft | 348 kts | 11° |
| 2026-05-05 08:31 | 52.60556 | 5.21122 | 16624 ft | 353 kts | 12° |
| 2026-05-05 08:32 | 52.62944 | 5.22176 | 17447 ft | 359 kts | 12° |
| 2026-05-05 08:32 | 52.65371 | 5.23276 | 18280 ft | 364 kts | 12° |
| 2026-05-05 08:32 | 52.67827 | 5.24380 | 19028 ft | 368 kts | 12° |
| 2026-05-05 08:32 | 52.70315 | 5.25494 | 19763 ft | 373 kts | 12° |
| 2026-05-05 08:33 | 52.72812 | 5.26746 | 20457 ft | 381 kts | 21° |
| 2026-05-05 08:33 | 52.75020 | 5.29242 | 21143 ft | 391 kts | 44° |
| 2026-05-05 08:33 | 52.76771 | 5.32707 | 21905 ft | 395 kts | 51° |
| 2026-05-05 08:33 | 52.78471 | 5.36315 | 22582 ft | 401 kts | 51° |
| 2026-05-05 08:34 | 52.80180 | 5.39986 | 23248 ft | 406 kts | 51° |
| 2026-05-05 08:34 | 52.81908 | 5.43709 | 23859 ft | 410 kts | 51° |
| 2026-05-05 08:34 | 52.83656 | 5.47472 | 24437 ft | 414 kts | 51° |
| 2026-05-05 08:34 | 52.85398 | 5.51214 | 25001 ft | 418 kts | 51° |
| 2026-05-05 08:35 | 52.87205 | 5.55090 | 25560 ft | 422 kts | 51° |
| 2026-05-05 08:35 | 52.89007 | 5.58948 | 26091 ft | 426 kts | 51° |
| 2026-05-05 08:35 | 52.90841 | 5.62840 | 26612 ft | 430 kts | 50° |
| 2026-05-05 08:35 | 52.92646 | 5.66827 | 27150 ft | 434 kts | 51° |
| 2026-05-05 08:36 | 52.94483 | 5.70818 | 27696 ft | 437 kts | 51° |
| 2026-05-05 08:36 | 52.96345 | 5.74814 | 28219 ft | 440 kts | 51° |
| 2026-05-05 08:36 | 52.98225 | 5.78845 | 28730 ft | 443 kts | 51° |
| 2026-05-05 08:36 | 53.00115 | 5.82912 | 29220 ft | 447 kts | 51° |
| 2026-05-05 08:37 | 53.02015 | 5.87020 | 29698 ft | 450 kts | 51° |
| 2026-05-05 08:37 | 53.03927 | 5.91167 | 30139 ft | 454 kts | 51° |
| 2026-05-05 08:37 | 53.05849 | 5.95349 | 30516 ft | 457 kts | 51° |
| 2026-05-05 08:37 | 53.07780 | 5.99557 | 30898 ft | 459 kts | 51° |
| 2026-05-05 08:38 | 53.09723 | 6.03796 | 31268 ft | 462 kts | 51° |
| 2026-05-05 08:38 | 53.11670 | 6.08047 | 31766 ft | 461 kts | 52° |
| 2026-05-05 08:38 | 53.13613 | 6.12282 | 32328 ft | 458 kts | 52° |
| 2026-05-05 08:38 | 53.15549 | 6.16505 | 32734 ft | 460 kts | 52° |
| 2026-05-05 08:39 | 53.17497 | 6.20759 | 33051 ft | 463 kts | 52° |
| 2026-05-05 08:39 | 53.19451 | 6.25034 | 33494 ft | 463 kts | 52° |
| 2026-05-05 08:39 | 53.21372 | 6.29245 | 34008 ft | 461 kts | 52° |
| 2026-05-05 08:39 | 53.23308 | 6.33498 | 34427 ft | 460 kts | 52° |
| 2026-05-05 08:40 | 53.25242 | 6.37754 | 34792 ft | 460 kts | 52° |
| 2026-05-05 08:40 | 53.27174 | 6.42015 | 35132 ft | 460 kts | 52° |
| 2026-05-05 08:40 | 53.29105 | 6.46279 | 35517 ft | 460 kts | 52° |
| 2026-05-05 08:40 | 53.31032 | 6.50540 | 35898 ft | 459 kts | 52° |
| 2026-05-05 08:41 | 53.32953 | 6.54794 | 36234 ft | 458 kts | 52° |
| 2026-05-05 08:41 | 53.34909 | 6.59015 | 36508 ft | 459 kts | 48° |
| 2026-05-05 08:41 | 53.37141 | 6.62819 | 36807 ft | 458 kts | 41° |
| 2026-05-05 08:41 | 53.39518 | 6.66377 | 36981 ft | 460 kts | 40° |
| 2026-05-05 08:42 | 53.41934 | 6.69931 | 36976 ft | 463 kts | 40° |
| 2026-05-05 08:42 | 53.46715 | 6.77134 | 36967 ft | 459 kts | 41° |
| 2026-05-05 08:43 | 53.51406 | 6.84384 | 36972 ft | 458 kts | 41° |
| 2026-05-05 08:43 | 53.56047 | 6.91705 | 36988 ft | 457 kts | 43° |
| 2026-05-05 08:44 | 53.60870 | 6.98612 | 36992 ft | 453 kts | 34° |
| 2026-05-05 08:44 | 53.65780 | 7.05288 | 36989 ft | 454 kts | 39° |
| 2026-05-05 08:45 | 53.70567 | 7.12238 | 36973 ft | 454 kts | 39° |
| 2026-05-05 08:45 | 53.75382 | 7.19137 | 36978 ft | 454 kts | 38° |
| 2026-05-05 08:46 | 53.80188 | 7.26076 | 36988 ft | 455 kts | 39° |
| 2026-05-05 08:46 | 53.85017 | 7.32990 | 36978 ft | 454 kts | 34° |
| 2026-05-05 08:47 | 53.90537 | 7.37969 | 36983 ft | 448 kts | 17° |
| 2026-05-05 08:47 | 53.96437 | 7.41358 | 36974 ft | 446 kts | 10° |
| 2026-05-05 08:48 | 54.02520 | 7.43292 | 36998 ft | 445 kts | 6° |
| 2026-05-05 08:48 | 54.08628 | 7.45127 | 36990 ft | 446 kts | 7° |
| 2026-05-05 08:49 | 54.14743 | 7.47052 | 36991 ft | 447 kts | 7° |
| 2026-05-05 08:49 | 54.20860 | 7.49003 | 36783 ft | 450 kts | 7° |
| 2026-05-05 08:49 | 54.23943 | 7.49982 | 36310 ft | 449 kts | 7° |
| 2026-05-05 08:50 | 54.27001 | 7.50953 | 35771 ft | 446 kts | 8° |
| 2026-05-05 08:50 | 54.30051 | 7.51922 | 35160 ft | 446 kts | 8° |
| 2026-05-05 08:50 | 54.33105 | 7.52893 | 34543 ft | 446 kts | 8° |
| 2026-05-05 08:50 | 54.36142 | 7.53860 | 34086 ft | 442 kts | 8° |
| 2026-05-05 08:51 | 54.39147 | 7.54820 | 33574 ft | 437 kts | 8° |
| 2026-05-05 08:51 | 54.42123 | 7.55773 | 33104 ft | 432 kts | 8° |
| 2026-05-05 08:51 | 54.45058 | 7.56714 | 32660 ft | 427 kts | 8° |
| 2026-05-05 08:51 | 54.47961 | 7.57646 | 32232 ft | 422 kts | 8° |
| 2026-05-05 08:52 | 54.50830 | 7.58568 | 31795 ft | 418 kts | 8° |
| 2026-05-05 08:52 | 54.53667 | 7.59509 | 31383 ft | 413 kts | 10° |
| 2026-05-05 08:52 | 54.56474 | 7.60449 | 30949 ft | 409 kts | 7° |
| 2026-05-05 08:52 | 54.59261 | 7.61267 | 30537 ft | 405 kts | 7° |
| 2026-05-05 08:53 | 54.62022 | 7.62147 | 30139 ft | 401 kts | 8° |
| 2026-05-05 08:53 | 54.64751 | 7.63042 | 29666 ft | 398 kts | 8° |
| 2026-05-05 08:53 | 54.67454 | 7.63928 | 29247 ft | 392 kts | 8° |
| 2026-05-05 08:53 | 54.70119 | 7.64798 | 28833 ft | 388 kts | 8° |
| 2026-05-05 08:54 | 54.72754 | 7.65657 | 28429 ft | 383 kts | 8° |
| 2026-05-05 08:54 | 54.75356 | 7.66507 | 28009 ft | 379 kts | 8° |
| 2026-05-05 08:54 | 54.77900 | 7.67338 | 27616 ft | 376 kts | 7° |
| 2026-05-05 08:54 | 54.80461 | 7.68175 | 27181 ft | 373 kts | 7° |
| 2026-05-05 08:55 | 54.83001 | 7.69007 | 26765 ft | 371 kts | 7° |
| 2026-05-05 08:55 | 54.85528 | 7.69835 | 26360 ft | 368 kts | 7° |
| 2026-05-05 08:55 | 54.88067 | 7.70668 | 25958 ft | 365 kts | 7° |
| 2026-05-05 08:55 | 54.90556 | 7.71486 | 25564 ft | 363 kts | 7° |
| 2026-05-05 08:56 | 54.93029 | 7.72300 | 25176 ft | 361 kts | 7° |
| 2026-05-05 08:56 | 54.95490 | 7.73111 | 24790 ft | 359 kts | 7° |
| 2026-05-05 08:56 | 54.97934 | 7.73918 | 24408 ft | 357 kts | 7° |
| 2026-05-05 08:56 | 55.00332 | 7.75073 | 24027 ft | 359 kts | 18° |
| 2026-05-05 08:57 | 55.02563 | 7.76994 | 23752 ft | 358 kts | 27° |
| 2026-05-05 08:57 | 55.04649 | 7.79296 | 23333 ft | 360 kts | 29° |
| 2026-05-05 08:57 | 55.06811 | 7.81475 | 22893 ft | 359 kts | 23° |
| 2026-05-05 08:57 | 55.09042 | 7.83510 | 22482 ft | 366 kts | 25° |
| 2026-05-05 08:58 | 55.11276 | 7.85715 | 22080 ft | 372 kts | 27° |
| 2026-05-05 08:58 | 55.13501 | 7.88002 | 21659 ft | 370 kts | 27° |
| 2026-05-05 08:58 | 55.15711 | 7.90289 | 21239 ft | 367 kts | 27° |
| 2026-05-05 08:58 | 55.17904 | 7.92548 | 20846 ft | 364 kts | 27° |
| 2026-05-05 08:59 | 55.20081 | 7.94775 | 20444 ft | 361 kts | 26° |
| 2026-05-05 08:59 | 55.22246 | 7.96980 | 20059 ft | 359 kts | 26° |
| 2026-05-05 08:59 | 55.24399 | 7.99167 | 19666 ft | 356 kts | 26° |
| 2026-05-05 08:59 | 55.26536 | 8.01338 | 19305 ft | 354 kts | 26° |
| 2026-05-05 09:00 | 55.28661 | 8.03497 | 18906 ft | 353 kts | 26° |
| 2026-05-05 09:00 | 55.30779 | 8.05651 | 18513 ft | 351 kts | 26° |
| 2026-05-05 09:00 | 55.32916 | 8.07827 | 18106 ft | 350 kts | 26° |
| 2026-05-05 09:00 | 55.34300 | 8.09237 | 17818 ft | 348 kts | 26° |
| 2026-05-05 09:01 | 55.37070 | 8.12065 | 17279 ft | 345 kts | 26° |
| 2026-05-05 09:01 | 55.39138 | 8.14183 | 16893 ft | 343 kts | 27° |
| 2026-05-05 09:01 | 55.40991 | 8.16830 | 16513 ft | 347 kts | 47° |
| 2026-05-05 09:01 | 55.42253 | 8.20430 | 16156 ft | 347 kts | 66° |
| 2026-05-05 09:02 | 55.43055 | 8.24421 | 15802 ft | 345 kts | 71° |
| 2026-05-05 09:02 | 55.43780 | 8.28440 | 15418 ft | 343 kts | 72° |
| 2026-05-05 09:02 | 55.44256 | 8.31149 | 15171 ft | 342 kts | 72° |
| 2026-05-05 09:02 | 55.44955 | 8.35142 | 14797 ft | 340 kts | 72° |
| 2026-05-05 09:03 | 55.45648 | 8.39066 | 14438 ft | 339 kts | 72° |
| 2026-05-05 09:03 | 55.46360 | 8.43072 | 14075 ft | 337 kts | 71° |
| 2026-05-05 09:03 | 55.47063 | 8.46998 | 13707 ft | 336 kts | 71° |
| 2026-05-05 09:03 | 55.47757 | 8.50868 | 13307 ft | 334 kts | 71° |
| 2026-05-05 09:04 | 55.48458 | 8.54761 | 12925 ft | 332 kts | 71° |
| 2026-05-05 09:04 | 55.49154 | 8.58634 | 12568 ft | 331 kts | 71° |
| 2026-05-05 09:04 | 55.49846 | 8.62491 | 12185 ft | 329 kts | 71° |
| 2026-05-05 09:04 | 55.50535 | 8.66332 | 11812 ft | 328 kts | 71° |
| 2026-05-05 09:05 | 55.51220 | 8.70158 | 11452 ft | 326 kts | 71° |
| 2026-05-05 09:05 | 55.51900 | 8.73964 | 11081 ft | 324 kts | 71° |
| 2026-05-05 09:05 | 55.52575 | 8.77745 | 10731 ft | 322 kts | 71° |
| 2026-05-05 09:05 | 55.53240 | 8.81482 | 10381 ft | 315 kts | 71° |
| 2026-05-05 09:06 | 55.53889 | 8.85139 | 9991 ft | 309 kts | 71° |
| 2026-05-05 09:06 | 55.54526 | 8.88737 | 9542 ft | 305 kts | 71° |
| 2026-05-05 09:06 | 55.55154 | 8.92286 | 9075 ft | 300 kts | 71° |
| 2026-05-05 09:06 | 55.55772 | 8.95784 | 8627 ft | 296 kts | 71° |
| 2026-05-05 09:07 | 55.56378 | 8.99226 | 8253 ft | 292 kts | 71° |
| 2026-05-05 09:07 | 55.56980 | 9.02645 | 7895 ft | 291 kts | 71° |
| 2026-05-05 09:07 | 55.57578 | 9.06052 | 7547 ft | 290 kts | 71° |
| 2026-05-05 09:07 | 55.58171 | 9.09435 | 7247 ft | 286 kts | 71° |
| 2026-05-05 09:08 | 55.58760 | 9.12772 | 6953 ft | 283 kts | 71° |
| 2026-05-05 09:08 | 55.59329 | 9.16085 | 6660 ft | 280 kts | 71° |
| 2026-05-05 09:08 | 55.59898 | 9.19357 | 6363 ft | 277 kts | 71° |
| 2026-05-05 09:08 | 55.60474 | 9.22588 | 6045 ft | 274 kts | 72° |
| 2026-05-05 09:09 | 55.61019 | 9.25805 | 5730 ft | 272 kts | 71° |
| 2026-05-05 09:09 | 55.61566 | 9.28982 | 5418 ft | 269 kts | 71° |
| 2026-05-05 09:09 | 55.62114 | 9.32122 | 5106 ft | 266 kts | 71° |
| 2026-05-05 09:09 | 55.62655 | 9.35225 | 4836 ft | 262 kts | 71° |
| 2026-05-05 09:10 | 55.63191 | 9.38300 | 4574 ft | 260 kts | 71° |
| 2026-05-05 09:10 | 55.63713 | 9.41345 | 4315 ft | 257 kts | 71° |
| 2026-05-05 09:10 | 55.64219 | 9.44372 | 4044 ft | 256 kts | 71° |
| 2026-05-05 09:10 | 55.64759 | 9.47354 | 3776 ft | 254 kts | 69° |
| 2026-05-05 09:11 | 55.65278 | 9.50322 | 3521 ft | 252 kts | 72° |
| 2026-05-05 09:11 | 55.65913 | 9.53169 | 3239 ft | 247 kts | 52° |
| 2026-05-05 09:11 | 55.67210 | 9.55016 | 3039 ft | 237 kts | 21° |
| 2026-05-05 09:11 | 55.68781 | 9.55528 | 2980 ft | 225 kts | 358° |
| 2026-05-05 09:12 | 55.70263 | 9.54977 | 2978 ft | 212 kts | 339° |
| 2026-05-05 09:12 | 55.71571 | 9.54006 | 2961 ft | 199 kts | 338° |
| 2026-05-05 09:12 | 55.72833 | 9.53056 | 2952 ft | 195 kts | 338° |
| 2026-05-05 09:12 | 55.74060 | 9.52060 | 2953 ft | 192 kts | 328° |
| 2026-05-05 09:13 | 55.74793 | 9.50216 | 2967 ft | 186 kts | 283° |
| 2026-05-05 09:13 | 55.74854 | 9.47919 | 2963 ft | 186 kts | 278° |
| 2026-05-05 09:13 | 55.74977 | 9.45659 | 2958 ft | 184 kts | 275° |
| 2026-05-05 09:13 | 55.74948 | 9.43387 | 2960 ft | 184 kts | 270° |
| 2026-05-05 09:14 | 55.74869 | 9.41095 | 2856 ft | 189 kts | 270° |
| 2026-05-05 09:14 | 55.74788 | 9.38777 | 2607 ft | 187 kts | 269° |
| 2026-05-05 09:14 | 55.74711 | 9.36497 | 2369 ft | 183 kts | 270° |
| 2026-05-05 09:14 | 55.74639 | 9.34285 | 2120 ft | 174 kts | 270° |
| 2026-05-05 09:15 | 55.74571 | 9.32251 | 1911 ft | 155 kts | 270° |
| 2026-05-05 09:15 | 55.74512 | 9.30435 | 1679 ft | 140 kts | 271° |
| 2026-05-05 09:15 | 55.74459 | 9.28744 | 1487 ft | 135 kts | 270° |
| 2026-05-05 09:15 | 55.74428 | 9.27070 | 1282 ft | 138 kts | 271° |
| 2026-05-05 09:16 | 55.74355 | 9.25346 | 1047 ft | 140 kts | 267° |
| 2026-05-05 09:16 | 55.74273 | 9.23644 | 826 ft | 137 kts | 269° |
| 2026-05-05 09:16 | 55.74250 | 9.21985 | 649 ft | 133 kts | 271° |
| 2026-05-05 09:16 | 55.74202 | 9.20383 | 510 ft | 129 kts | 268° |
| 2026-05-05 09:17 | 55.74147 | 9.18766 | 336 ft | 134 kts | 268° |
| 2026-05-05 09:17 | 55.74091 | 9.17113 | 222 ft | 132 kts | 269° |
| 2026-05-05 09:17 | 55.74050 | 9.15680 | 215 ft | 96 kts | 267° |
| 2026-05-05 09:17 | 55.74023 | 9.14779 | 215 ft | 37 kts | 268° |
| 2026-05-05 09:18 | 55.74018 | 9.14554 | 215 ft | 9 kts | 277° |
| 2026-05-05 09:18 | 55.74065 | 9.14495 | 220 ft | 9 kts | 357° |
| 2026-05-05 09:18 | 55.74128 | 9.14490 | 219 ft | 9 kts | 357° |
| 2026-05-05 09:18 | 55.74189 | 9.14485 | 215 ft | 9 kts | 357° |
| 2026-05-05 09:19 | 55.74248 | 9.14479 | 215 ft | 8 kts | 357° |
| 2026-05-05 09:19 | 55.74306 | 9.14474 | 222 ft | 8 kts | 356° |
| 2026-05-05 09:19 | 55.74362 | 9.14468 | 219 ft | 8 kts | 356° |
| 2026-05-05 09:19 | 55.74415 | 9.14472 | 222 ft | 8 kts | 20° |
| 2026-05-05 09:20 | 55.74441 | 9.14549 | 219 ft | 8 kts | 84° |
| 2026-05-05 09:20 | 55.74445 | 9.14636 | 220 ft | 5 kts | 87° |
| 2026-05-05 09:20 | 55.74445 | 9.14667 | 220 ft | 0 kts | 87° |
| 2026-05-05 09:20 | 55.74451 | 9.14680 | 218 ft | 3 kts | 43° |
| 2026-05-05 09:21 | 55.74482 | 9.14688 | 215 ft | 6 kts | 0° |
| 2026-05-05 09:21 | 55.74513 | 9.14685 | 215 ft | 3 kts | 357° |
| 2026-05-05 09:21 | 55.74527 | 9.14684 | 218 ft | 0 kts | 357° |